sensor_id;sensor_type;location;lat;lon;timestamp;P1;durP1;ratioP1;P2;durP2;ratioP2
8488;SDS011;4281;45.772;12.852;2022-08-20T00:02:13;1.70;;;1.60;;
8488;SDS011;4281;45.772;12.852;2022-08-20T00:04:42;4.73;;;1.80;;
8488;SDS011;4281;45.772;12.852;2022-08-20T00:07:11;2.83;;;1.60;;
8488;SDS011;4281;45.772;12.852;2022-08-20T00:09:39;2.93;;;1.80;;
8488;SDS011;4281;45.772;12.852;2022-08-20T00:12:09;3.23;;;1.67;;
8488;SDS011;4281;45.772;12.852;2022-08-20T00:14:39;2.47;;;1.40;;
8488;SDS011;4281;45.772;12.852;2022-08-20T00:17:09;4.50;;;2.00;;
8488;SDS011;4281;45.772;12.852;2022-08-20T00:19:37;3.23;;;1.70;;
8488;SDS011;4281;45.772;12.852;2022-08-20T00:22:06;4.57;;;1.70;;
8488;SDS011;4281;45.772;12.852;2022-08-20T00:24:34;2.50;;;1.60;;
8488;SDS011;4281;45.772;12.852;2022-08-20T00:27:03;6.30;;;2.20;;
8488;SDS011;4281;45.772;12.852;2022-08-20T00:29:31;1.87;;;1.60;;
8488;SDS011;4281;45.772;12.852;2022-08-20T00:32:00;2.40;;;2.00;;
8488;SDS011;4281;45.772;12.852;2022-08-20T00:34:30;2.73;;;1.80;;
8488;SDS011;4281;45.772;12.852;2022-08-20T00:36:58;3.30;;;2.20;;
8488;SDS011;4281;45.772;12.852;2022-08-20T00:39:26;3.93;;;1.77;;
8488;SDS011;4281;45.772;12.852;2022-08-20T00:41:55;2.60;;;1.77;;
8488;SDS011;4281;45.772;12.852;2022-08-20T00:44:24;2.47;;;1.80;;
8488;SDS011;4281;45.772;12.852;2022-08-20T00:46:53;3.73;;;2.10;;
8488;SDS011;4281;45.772;12.852;2022-08-20T00:49:23;3.37;;;1.90;;
8488;SDS011;4281;45.772;12.852;2022-08-20T00:51:55;3.90;;;2.13;;
8488;SDS011;4281;45.772;12.852;2022-08-20T00:54:29;4.23;;;1.93;;
8488;SDS011;4281;45.772;12.852;2022-08-20T00:57:01;3.83;;;2.00;;
8488;SDS011;4281;45.772;12.852;2022-08-20T00:59:34;4.67;;;2.03;;
8488;SDS011;4281;45.772;12.852;2022-08-20T01:02:05;4.63;;;2.37;;
8488;SDS011;4281;45.772;12.852;2022-08-20T01:04:36;2.87;;;2.00;;
8488;SDS011;4281;45.772;12.852;2022-08-20T01:07:06;3.63;;;2.17;;
8488;SDS011;4281;45.772;12.852;2022-08-20T01:09:35;2.90;;;2.10;;
8488;SDS011;4281;45.772;12.852;2022-08-20T01:12:25;3.30;;;2.10;;
8488;SDS011;4281;45.772;12.852;2022-08-20T01:14:54;3.50;;;2.10;;
8488;SDS011;4281;45.772;12.852;2022-08-20T01:17:26;2.53;;;2.03;;
8488;SDS011;4281;45.772;12.852;2022-08-20T01:20:00;2.97;;;2.43;;
8488;SDS011;4281;45.772;12.852;2022-08-20T01:22:37;2.37;;;2.07;;
8488;SDS011;4281;45.772;12.852;2022-08-20T01:25:28;3.27;;;2.03;;
8488;SDS011;4281;45.772;12.852;2022-08-20T01:28:08;5.83;;;2.30;;
8488;SDS011;4281;45.772;12.852;2022-08-20T01:30:38;5.03;;;2.20;;
8488;SDS011;4281;45.772;12.852;2022-08-20T01:33:07;2.43;;;2.23;;
8488;SDS011;4281;45.772;12.852;2022-08-20T01:35:36;3.60;;;1.97;;
8488;SDS011;4281;45.772;12.852;2022-08-20T01:38:07;4.87;;;2.33;;
8488;SDS011;4281;45.772;12.852;2022-08-20T01:43:52;4.43;;;2.50;;
8488;SDS011;4281;45.772;12.852;2022-08-20T01:49:07;3.07;;;2.30;;
8488;SDS011;4281;45.772;12.852;2022-08-20T01:51:39;3.03;;;1.97;;
8488;SDS011;4281;45.772;12.852;2022-08-20T01:54:08;4.33;;;1.90;;
8488;SDS011;4281;45.772;12.852;2022-08-20T01:56:49;2.57;;;1.77;;
8488;SDS011;4281;45.772;12.852;2022-08-20T01:59:21;3.80;;;2.17;;
8488;SDS011;4281;45.772;12.852;2022-08-20T02:01:50;3.67;;;1.97;;
8488;SDS011;4281;45.772;12.852;2022-08-20T02:04:19;4.30;;;2.10;;
8488;SDS011;4281;45.772;12.852;2022-08-20T02:06:48;4.83;;;1.97;;
8488;SDS011;4281;45.772;12.852;2022-08-20T02:09:23;3.13;;;1.80;;
8488;SDS011;4281;45.772;12.852;2022-08-20T02:11:54;4.27;;;1.83;;
8488;SDS011;4281;45.772;12.852;2022-08-20T02:14:23;4.67;;;1.50;;
8488;SDS011;4281;45.772;12.852;2022-08-20T02:16:52;3.93;;;1.83;;
8488;SDS011;4281;45.772;12.852;2022-08-20T02:19:24;3.77;;;1.80;;
8488;SDS011;4281;45.772;12.852;2022-08-20T02:21:59;3.70;;;1.60;;
8488;SDS011;4281;45.772;12.852;2022-08-20T02:24:31;2.90;;;1.87;;
8488;SDS011;4281;45.772;12.852;2022-08-20T02:27:02;2.40;;;1.80;;
8488;SDS011;4281;45.772;12.852;2022-08-20T02:29:30;3.00;;;1.90;;
8488;SDS011;4281;45.772;12.852;2022-08-20T02:31:59;4.37;;;2.10;;
8488;SDS011;4281;45.772;12.852;2022-08-20T02:34:48;5.33;;;2.20;;
8488;SDS011;4281;45.772;12.852;2022-08-20T02:37:16;2.83;;;1.77;;
8488;SDS011;4281;45.772;12.852;2022-08-20T02:39:45;3.37;;;2.07;;
8488;SDS011;4281;45.772;12.852;2022-08-20T02:42:15;4.37;;;1.93;;
8488;SDS011;4281;45.772;12.852;2022-08-20T02:44:43;6.07;;;1.90;;
8488;SDS011;4281;45.772;12.852;2022-08-20T02:47:12;3.23;;;2.27;;
8488;SDS011;4281;45.772;12.852;2022-08-20T02:49:40;3.67;;;1.90;;
8488;SDS011;4281;45.772;12.852;2022-08-20T02:52:09;2.50;;;1.47;;
8488;SDS011;4281;45.772;12.852;2022-08-20T02:54:37;3.27;;;1.70;;
8488;SDS011;4281;45.772;12.852;2022-08-20T02:57:10;6.70;;;2.17;;
8488;SDS011;4281;45.772;12.852;2022-08-20T02:59:40;4.87;;;2.00;;
8488;SDS011;4281;45.772;12.852;2022-08-20T03:02:10;3.13;;;1.67;;
8488;SDS011;4281;45.772;12.852;2022-08-20T03:04:39;3.80;;;1.90;;
8488;SDS011;4281;45.772;12.852;2022-08-20T03:07:08;4.53;;;2.00;;
8488;SDS011;4281;45.772;12.852;2022-08-20T03:09:37;4.73;;;2.13;;
8488;SDS011;4281;45.772;12.852;2022-08-20T03:12:05;2.57;;;2.10;;
8488;SDS011;4281;45.772;12.852;2022-08-20T03:14:35;5.97;;;1.87;;
8488;SDS011;4281;45.772;12.852;2022-08-20T03:17:05;3.73;;;2.03;;
8488;SDS011;4281;45.772;12.852;2022-08-20T03:19:33;3.23;;;2.00;;
8488;SDS011;4281;45.772;12.852;2022-08-20T03:22:02;4.97;;;1.80;;
8488;SDS011;4281;45.772;12.852;2022-08-20T03:24:30;2.77;;;1.87;;
8488;SDS011;4281;45.772;12.852;2022-08-20T03:26:59;3.33;;;2.17;;
8488;SDS011;4281;45.772;12.852;2022-08-20T03:29:28;4.53;;;2.20;;
8488;SDS011;4281;45.772;12.852;2022-08-20T03:31:56;2.87;;;2.00;;
8488;SDS011;4281;45.772;12.852;2022-08-20T03:34:26;4.97;;;1.90;;
8488;SDS011;4281;45.772;12.852;2022-08-20T03:36:54;5.40;;;2.10;;
8488;SDS011;4281;45.772;12.852;2022-08-20T03:39:23;4.10;;;2.30;;
8488;SDS011;4281;45.772;12.852;2022-08-20T03:41:51;3.47;;;1.93;;
8488;SDS011;4281;45.772;12.852;2022-08-20T03:44:19;3.77;;;2.23;;
8488;SDS011;4281;45.772;12.852;2022-08-20T03:49:31;3.43;;;1.90;;
8488;SDS011;4281;45.772;12.852;2022-08-20T03:52:01;4.33;;;2.00;;
8488;SDS011;4281;45.772;12.852;2022-08-20T03:54:30;4.23;;;2.13;;
8488;SDS011;4281;45.772;12.852;2022-08-20T03:56:59;6.13;;;2.20;;
8488;SDS011;4281;45.772;12.852;2022-08-20T03:59:37;3.10;;;2.07;;
8488;SDS011;4281;45.772;12.852;2022-08-20T04:02:06;2.37;;;2.17;;
8488;SDS011;4281;45.772;12.852;2022-08-20T04:04:36;3.10;;;2.20;;
8488;SDS011;4281;45.772;12.852;2022-08-20T04:07:09;3.77;;;2.07;;
8488;SDS011;4281;45.772;12.852;2022-08-20T04:09:39;4.87;;;2.17;;
8488;SDS011;4281;45.772;12.852;2022-08-20T04:12:09;4.13;;;2.17;;
8488;SDS011;4281;45.772;12.852;2022-08-20T04:14:40;3.00;;;2.17;;
8488;SDS011;4281;45.772;12.852;2022-08-20T04:17:09;3.73;;;2.30;;
8488;SDS011;4281;45.772;12.852;2022-08-20T04:19:40;3.23;;;2.13;;
8488;SDS011;4281;45.772;12.852;2022-08-20T04:22:09;6.70;;;2.10;;
8488;SDS011;4281;45.772;12.852;2022-08-20T04:24:39;3.07;;;2.57;;
8488;SDS011;4281;45.772;12.852;2022-08-20T04:27:08;5.57;;;2.23;;
8488;SDS011;4281;45.772;12.852;2022-08-20T04:29:39;2.77;;;2.07;;
8488;SDS011;4281;45.772;12.852;2022-08-20T04:32:10;3.17;;;2.20;;
8488;SDS011;4281;45.772;12.852;2022-08-20T04:34:38;3.07;;;1.80;;
8488;SDS011;4281;45.772;12.852;2022-08-20T04:37:08;4.23;;;1.83;;
8488;SDS011;4281;45.772;12.852;2022-08-20T04:39:42;3.10;;;2.30;;
8488;SDS011;4281;45.772;12.852;2022-08-20T04:42:11;2.97;;;2.17;;
8488;SDS011;4281;45.772;12.852;2022-08-20T04:44:38;3.07;;;2.13;;
8488;SDS011;4281;45.772;12.852;2022-08-20T04:49:38;2.77;;;2.40;;
8488;SDS011;4281;45.772;12.852;2022-08-20T04:52:08;4.23;;;2.10;;
8488;SDS011;4281;45.772;12.852;2022-08-20T04:54:37;4.13;;;2.20;;
8488;SDS011;4281;45.772;12.852;2022-08-20T04:57:05;4.37;;;2.10;;
8488;SDS011;4281;45.772;12.852;2022-08-20T04:59:34;3.67;;;2.07;;
8488;SDS011;4281;45.772;12.852;2022-08-20T05:02:03;3.23;;;2.17;;
8488;SDS011;4281;45.772;12.852;2022-08-20T05:04:31;3.50;;;2.10;;
8488;SDS011;4281;45.772;12.852;2022-08-20T05:06:59;2.70;;;2.10;;
8488;SDS011;4281;45.772;12.852;2022-08-20T05:09:29;4.40;;;2.10;;
8488;SDS011;4281;45.772;12.852;2022-08-20T05:12:09;6.90;;;2.10;;
8488;SDS011;4281;45.772;12.852;2022-08-20T05:14:43;2.80;;;1.97;;
8488;SDS011;4281;45.772;12.852;2022-08-20T05:17:12;2.90;;;1.53;;
8488;SDS011;4281;45.772;12.852;2022-08-20T05:19:43;3.47;;;1.83;;
8488;SDS011;4281;45.772;12.852;2022-08-20T05:22:12;3.27;;;1.83;;
8488;SDS011;4281;45.772;12.852;2022-08-20T05:24:43;2.90;;;1.90;;
8488;SDS011;4281;45.772;12.852;2022-08-20T05:27:11;2.80;;;1.67;;
8488;SDS011;4281;45.772;12.852;2022-08-20T05:29:50;3.37;;;1.80;;
8488;SDS011;4281;45.772;12.852;2022-08-20T05:32:19;3.53;;;1.80;;
8488;SDS011;4281;45.772;12.852;2022-08-20T05:34:48;3.70;;;2.07;;
8488;SDS011;4281;45.772;12.852;2022-08-20T05:37:16;2.50;;;1.63;;
8488;SDS011;4281;45.772;12.852;2022-08-20T05:39:46;3.63;;;1.70;;
8488;SDS011;4281;45.772;12.852;2022-08-20T05:42:14;2.57;;;1.90;;
8488;SDS011;4281;45.772;12.852;2022-08-20T05:44:43;4.13;;;2.07;;
8488;SDS011;4281;45.772;12.852;2022-08-20T05:50:08;6.20;;;2.50;;
8488;SDS011;4281;45.772;12.852;2022-08-20T05:52:48;3.87;;;2.27;;
8488;SDS011;4281;45.772;12.852;2022-08-20T05:55:18;4.73;;;2.30;;
8488;SDS011;4281;45.772;12.852;2022-08-20T05:57:47;3.13;;;1.93;;
8488;SDS011;4281;45.772;12.852;2022-08-20T06:00:24;3.10;;;2.20;;
8488;SDS011;4281;45.772;12.852;2022-08-20T06:02:54;7.23;;;2.47;;
8488;SDS011;4281;45.772;12.852;2022-08-20T06:05:40;4.97;;;2.13;;
8488;SDS011;4281;45.772;12.852;2022-08-20T06:08:08;4.67;;;2.10;;
8488;SDS011;4281;45.772;12.852;2022-08-20T06:10:40;3.43;;;2.00;;
8488;SDS011;4281;45.772;12.852;2022-08-20T06:13:09;5.17;;;2.47;;
8488;SDS011;4281;45.772;12.852;2022-08-20T06:15:39;4.27;;;2.20;;
8488;SDS011;4281;45.772;12.852;2022-08-20T06:18:08;5.10;;;2.47;;
8488;SDS011;4281;45.772;12.852;2022-08-20T06:20:54;6.23;;;2.10;;
8488;SDS011;4281;45.772;12.852;2022-08-20T06:23:23;3.63;;;1.97;;
8488;SDS011;4281;45.772;12.852;2022-08-20T06:25:53;3.63;;;2.23;;
8488;SDS011;4281;45.772;12.852;2022-08-20T06:28:21;5.10;;;2.20;;
8488;SDS011;4281;45.772;12.852;2022-08-20T06:30:49;6.90;;;2.10;;
8488;SDS011;4281;45.772;12.852;2022-08-20T06:33:18;2.77;;;1.87;;
8488;SDS011;4281;45.772;12.852;2022-08-20T06:35:47;4.80;;;2.17;;
8488;SDS011;4281;45.772;12.852;2022-08-20T06:38:15;6.60;;;1.80;;
8488;SDS011;4281;45.772;12.852;2022-08-20T06:40:43;6.03;;;1.90;;
8488;SDS011;4281;45.772;12.852;2022-08-20T06:43:14;2.50;;;1.90;;
8488;SDS011;4281;45.772;12.852;2022-08-20T06:45:42;3.93;;;1.90;;
8488;SDS011;4281;45.772;12.852;2022-08-20T06:48:12;4.73;;;2.20;;
8488;SDS011;4281;45.772;12.852;2022-08-20T06:50:42;3.93;;;1.80;;
8488;SDS011;4281;45.772;12.852;2022-08-20T06:53:14;8.33;;;2.90;;
8488;SDS011;4281;45.772;12.852;2022-08-20T06:55:46;3.97;;;2.30;;
8488;SDS011;4281;45.772;12.852;2022-08-20T06:58:19;3.77;;;1.80;;
8488;SDS011;4281;45.772;12.852;2022-08-20T07:01:04;3.53;;;1.70;;
8488;SDS011;4281;45.772;12.852;2022-08-20T07:03:35;4.83;;;1.73;;
8488;SDS011;4281;45.772;12.852;2022-08-20T07:06:07;3.70;;;2.10;;
8488;SDS011;4281;45.772;12.852;2022-08-20T07:08:36;3.20;;;1.80;;
8488;SDS011;4281;45.772;12.852;2022-08-20T07:11:05;5.77;;;2.40;;
8488;SDS011;4281;45.772;12.852;2022-08-20T07:13:36;3.10;;;1.97;;
8488;SDS011;4281;45.772;12.852;2022-08-20T07:16:06;3.27;;;1.90;;
8488;SDS011;4281;45.772;12.852;2022-08-20T07:18:34;3.13;;;1.80;;
8488;SDS011;4281;45.772;12.852;2022-08-20T07:21:03;5.87;;;2.37;;
8488;SDS011;4281;45.772;12.852;2022-08-20T07:23:31;4.70;;;2.40;;
8488;SDS011;4281;45.772;12.852;2022-08-20T07:26:01;3.27;;;2.13;;
8488;SDS011;4281;45.772;12.852;2022-08-20T07:28:30;5.67;;;2.30;;
8488;SDS011;4281;45.772;12.852;2022-08-20T07:31:00;6.43;;;2.30;;
8488;SDS011;4281;45.772;12.852;2022-08-20T07:33:46;3.73;;;2.20;;
8488;SDS011;4281;45.772;12.852;2022-08-20T07:36:16;5.73;;;3.00;;
8488;SDS011;4281;45.772;12.852;2022-08-20T07:38:45;4.30;;;2.07;;
8488;SDS011;4281;45.772;12.852;2022-08-20T07:41:16;3.90;;;1.97;;
8488;SDS011;4281;45.772;12.852;2022-08-20T07:43:46;3.30;;;2.00;;
8488;SDS011;4281;45.772;12.852;2022-08-20T07:46:17;4.60;;;1.93;;
8488;SDS011;4281;45.772;12.852;2022-08-20T07:48:47;3.00;;;1.93;;
8488;SDS011;4281;45.772;12.852;2022-08-20T07:51:17;3.23;;;2.07;;
8488;SDS011;4281;45.772;12.852;2022-08-20T07:53:48;2.73;;;1.80;;
8488;SDS011;4281;45.772;12.852;2022-08-20T07:56:19;6.57;;;2.27;;
8488;SDS011;4281;45.772;12.852;2022-08-20T07:58:50;3.83;;;2.10;;
8488;SDS011;4281;45.772;12.852;2022-08-20T08:01:22;4.43;;;1.87;;
8488;SDS011;4281;45.772;12.852;2022-08-20T08:03:54;3.90;;;2.10;;
8488;SDS011;4281;45.772;12.852;2022-08-20T08:06:25;2.63;;;1.80;;
8488;SDS011;4281;45.772;12.852;2022-08-20T08:08:58;5.07;;;1.93;;
8488;SDS011;4281;45.772;12.852;2022-08-20T08:11:31;5.17;;;2.20;;
8488;SDS011;4281;45.772;12.852;2022-08-20T08:14:01;2.13;;;1.60;;
8488;SDS011;4281;45.772;12.852;2022-08-20T08:16:33;5.33;;;1.80;;
8488;SDS011;4281;45.772;12.852;2022-08-20T08:19:03;2.50;;;2.07;;
8488;SDS011;4281;45.772;12.852;2022-08-20T08:21:39;4.50;;;1.90;;
8488;SDS011;4281;45.772;12.852;2022-08-20T08:24:09;3.73;;;2.00;;
8488;SDS011;4281;45.772;12.852;2022-08-20T08:26:47;4.70;;;1.93;;
8488;SDS011;4281;45.772;12.852;2022-08-20T08:29:18;5.33;;;2.33;;
8488;SDS011;4281;45.772;12.852;2022-08-20T08:31:48;5.23;;;2.07;;
8488;SDS011;4281;45.772;12.852;2022-08-20T08:34:16;7.77;;;2.50;;
8488;SDS011;4281;45.772;12.852;2022-08-20T08:36:46;4.77;;;2.10;;
8488;SDS011;4281;45.772;12.852;2022-08-20T08:39:16;4.63;;;2.07;;
8488;SDS011;4281;45.772;12.852;2022-08-20T08:41:46;3.80;;;1.83;;
8488;SDS011;4281;45.772;12.852;2022-08-20T08:44:17;4.10;;;2.10;;
8488;SDS011;4281;45.772;12.852;2022-08-20T08:46:51;5.00;;;2.10;;
8488;SDS011;4281;45.772;12.852;2022-08-20T08:49:24;5.03;;;3.60;;
8488;SDS011;4281;45.772;12.852;2022-08-20T08:52:04;6.37;;;2.67;;
8488;SDS011;4281;45.772;12.852;2022-08-20T08:54:45;3.20;;;1.97;;
8488;SDS011;4281;45.772;12.852;2022-08-20T08:57:19;3.87;;;2.10;;
8488;SDS011;4281;45.772;12.852;2022-08-20T08:59:50;5.10;;;2.50;;
8488;SDS011;4281;45.772;12.852;2022-08-20T09:02:32;4.40;;;1.83;;
8488;SDS011;4281;45.772;12.852;2022-08-20T09:05:13;3.13;;;2.07;;
8488;SDS011;4281;45.772;12.852;2022-08-20T09:07:44;7.57;;;2.80;;
8488;SDS011;4281;45.772;12.852;2022-08-20T09:10:20;6.80;;;2.07;;
8488;SDS011;4281;45.772;12.852;2022-08-20T09:12:49;7.33;;;2.00;;
8488;SDS011;4281;45.772;12.852;2022-08-20T09:15:18;6.20;;;4.17;;
8488;SDS011;4281;45.772;12.852;2022-08-20T09:20:35;4.50;;;2.30;;
8488;SDS011;4281;45.772;12.852;2022-08-20T09:23:04;4.10;;;2.27;;
8488;SDS011;4281;45.772;12.852;2022-08-20T09:25:32;4.37;;;1.93;;
8488;SDS011;4281;45.772;12.852;2022-08-20T09:28:01;4.33;;;2.40;;
8488;SDS011;4281;45.772;12.852;2022-08-20T09:30:30;3.83;;;2.10;;
8488;SDS011;4281;45.772;12.852;2022-08-20T09:32:59;3.53;;;1.77;;
8488;SDS011;4281;45.772;12.852;2022-08-20T09:35:28;4.47;;;2.40;;
8488;SDS011;4281;45.772;12.852;2022-08-20T09:37:58;4.77;;;2.30;;
8488;SDS011;4281;45.772;12.852;2022-08-20T09:40:26;2.57;;;1.80;;
8488;SDS011;4281;45.772;12.852;2022-08-20T09:42:55;4.17;;;2.63;;
8488;SDS011;4281;45.772;12.852;2022-08-20T09:45:24;6.47;;;2.03;;
8488;SDS011;4281;45.772;12.852;2022-08-20T09:47:52;4.83;;;2.13;;
8488;SDS011;4281;45.772;12.852;2022-08-20T09:50:23;3.83;;;2.40;;
8488;SDS011;4281;45.772;12.852;2022-08-20T09:52:53;4.17;;;2.40;;
8488;SDS011;4281;45.772;12.852;2022-08-20T09:55:25;5.37;;;2.80;;
8488;SDS011;4281;45.772;12.852;2022-08-20T09:57:59;7.97;;;2.60;;
8488;SDS011;4281;45.772;12.852;2022-08-20T10:00:28;5.87;;;2.50;;
8488;SDS011;4281;45.772;12.852;2022-08-20T10:02:57;3.20;;;2.10;;
8488;SDS011;4281;45.772;12.852;2022-08-20T10:05:27;6.40;;;2.67;;
8488;SDS011;4281;45.772;12.852;2022-08-20T10:07:56;4.17;;;2.50;;
8488;SDS011;4281;45.772;12.852;2022-08-20T10:10:26;5.80;;;3.20;;
8488;SDS011;4281;45.772;12.852;2022-08-20T10:12:55;3.20;;;2.60;;
8488;SDS011;4281;45.772;12.852;2022-08-20T10:15:23;5.73;;;3.03;;
8488;SDS011;4281;45.772;12.852;2022-08-20T10:17:52;3.50;;;2.10;;
8488;SDS011;4281;45.772;12.852;2022-08-20T10:20:23;3.77;;;1.90;;
8488;SDS011;4281;45.772;12.852;2022-08-20T10:22:51;6.70;;;2.17;;
8488;SDS011;4281;45.772;12.852;2022-08-20T10:25:20;3.43;;;1.90;;
8488;SDS011;4281;45.772;12.852;2022-08-20T10:27:50;3.47;;;1.90;;
8488;SDS011;4281;45.772;12.852;2022-08-20T10:30:19;4.23;;;2.30;;
8488;SDS011;4281;45.772;12.852;2022-08-20T10:32:48;2.83;;;1.93;;
8488;SDS011;4281;45.772;12.852;2022-08-20T10:35:16;4.60;;;2.00;;
8488;SDS011;4281;45.772;12.852;2022-08-20T10:37:45;5.43;;;2.10;;
8488;SDS011;4281;45.772;12.852;2022-08-20T10:40:13;4.93;;;2.30;;
8488;SDS011;4281;45.772;12.852;2022-08-20T10:42:42;4.13;;;1.93;;
8488;SDS011;4281;45.772;12.852;2022-08-20T10:45:13;4.93;;;2.30;;
8488;SDS011;4281;45.772;12.852;2022-08-20T10:47:43;4.43;;;2.40;;
8488;SDS011;4281;45.772;12.852;2022-08-20T10:50:12;3.47;;;2.20;;
8488;SDS011;4281;45.772;12.852;2022-08-20T10:52:42;4.50;;;2.30;;
8488;SDS011;4281;45.772;12.852;2022-08-20T10:55:11;3.83;;;1.90;;
8488;SDS011;4281;45.772;12.852;2022-08-20T10:57:40;4.27;;;1.83;;
8488;SDS011;4281;45.772;12.852;2022-08-20T11:00:11;5.70;;;2.23;;
8488;SDS011;4281;45.772;12.852;2022-08-20T11:02:43;5.37;;;2.43;;
8488;SDS011;4281;45.772;12.852;2022-08-20T11:05:13;2.90;;;1.87;;
8488;SDS011;4281;45.772;12.852;2022-08-20T11:07:41;3.37;;;1.80;;
8488;SDS011;4281;45.772;12.852;2022-08-20T11:10:22;4.00;;;1.60;;
8488;SDS011;4281;45.772;12.852;2022-08-20T11:12:51;5.73;;;2.33;;
8488;SDS011;4281;45.772;12.852;2022-08-20T11:15:22;2.53;;;2.10;;
8488;SDS011;4281;45.772;12.852;2022-08-20T11:17:50;3.60;;;1.60;;
8488;SDS011;4281;45.772;12.852;2022-08-20T11:20:20;5.87;;;2.00;;
8488;SDS011;4281;45.772;12.852;2022-08-20T11:22:50;5.33;;;2.10;;
8488;SDS011;4281;45.772;12.852;2022-08-20T11:25:19;4.20;;;3.20;;
8488;SDS011;4281;45.772;12.852;2022-08-20T11:27:49;4.20;;;2.50;;
8488;SDS011;4281;45.772;12.852;2022-08-20T11:30:20;4.23;;;2.33;;
8488;SDS011;4281;45.772;12.852;2022-08-20T11:32:51;4.33;;;2.97;;
8488;SDS011;4281;45.772;12.852;2022-08-20T11:35:23;4.70;;;2.30;;
8488;SDS011;4281;45.772;12.852;2022-08-20T11:38:13;5.07;;;2.40;;
8488;SDS011;4281;45.772;12.852;2022-08-20T11:40:41;3.90;;;2.40;;
8488;SDS011;4281;45.772;12.852;2022-08-20T11:43:09;3.10;;;2.13;;
8488;SDS011;4281;45.772;12.852;2022-08-20T11:45:43;3.17;;;2.00;;
8488;SDS011;4281;45.772;12.852;2022-08-20T11:48:12;5.80;;;2.53;;
8488;SDS011;4281;45.772;12.852;2022-08-20T11:50:41;3.90;;;2.23;;
8488;SDS011;4281;45.772;12.852;2022-08-20T11:53:11;5.37;;;2.20;;
8488;SDS011;4281;45.772;12.852;2022-08-20T11:55:40;4.27;;;2.13;;
8488;SDS011;4281;45.772;12.852;2022-08-20T11:58:09;3.50;;;2.07;;
8488;SDS011;4281;45.772;12.852;2022-08-20T12:00:38;5.13;;;2.63;;
8488;SDS011;4281;45.772;12.852;2022-08-20T12:03:10;4.17;;;2.43;;
8488;SDS011;4281;45.772;12.852;2022-08-20T12:05:39;4.70;;;2.17;;
8488;SDS011;4281;45.772;12.852;2022-08-20T12:08:10;4.30;;;2.10;;
8488;SDS011;4281;45.772;12.852;2022-08-20T12:10:53;3.53;;;2.13;;
8488;SDS011;4281;45.772;12.852;2022-08-20T12:13:24;3.17;;;1.90;;
8488;SDS011;4281;45.772;12.852;2022-08-20T12:16:13;5.30;;;2.30;;
8488;SDS011;4281;45.772;12.852;2022-08-20T12:18:46;5.63;;;2.20;;
8488;SDS011;4281;45.772;12.852;2022-08-20T12:21:15;5.00;;;2.00;;
8488;SDS011;4281;45.772;12.852;2022-08-20T12:23:45;3.23;;;2.10;;
8488;SDS011;4281;45.772;12.852;2022-08-20T12:26:14;4.30;;;2.13;;
8488;SDS011;4281;45.772;12.852;2022-08-20T12:28:43;4.13;;;2.10;;
8488;SDS011;4281;45.772;12.852;2022-08-20T12:31:12;3.40;;;2.03;;
8488;SDS011;4281;45.772;12.852;2022-08-20T12:33:40;6.30;;;2.30;;
8488;SDS011;4281;45.772;12.852;2022-08-20T12:36:10;6.03;;;2.40;;
8488;SDS011;4281;45.772;12.852;2022-08-20T12:38:39;5.50;;;2.33;;
8488;SDS011;4281;45.772;12.852;2022-08-20T12:41:07;2.83;;;1.80;;
8488;SDS011;4281;45.772;12.852;2022-08-20T12:43:36;2.80;;;2.00;;
8488;SDS011;4281;45.772;12.852;2022-08-20T12:46:05;4.53;;;1.97;;
8488;SDS011;4281;45.772;12.852;2022-08-20T12:48:35;3.03;;;2.00;;
8488;SDS011;4281;45.772;12.852;2022-08-20T12:51:03;3.87;;;2.20;;
8488;SDS011;4281;45.772;12.852;2022-08-20T12:53:34;2.63;;;1.93;;
8488;SDS011;4281;45.772;12.852;2022-08-20T12:56:03;3.00;;;1.70;;
8488;SDS011;4281;45.772;12.852;2022-08-20T13:01:08;3.13;;;1.97;;
8488;SDS011;4281;45.772;12.852;2022-08-20T13:03:37;4.13;;;1.80;;
8488;SDS011;4281;45.772;12.852;2022-08-20T13:06:10;2.60;;;1.50;;
8488;SDS011;4281;45.772;12.852;2022-08-20T13:08:40;3.43;;;1.73;;
8488;SDS011;4281;45.772;12.852;2022-08-20T13:11:09;3.70;;;1.80;;
8488;SDS011;4281;45.772;12.852;2022-08-20T13:13:39;2.17;;;1.50;;
8488;SDS011;4281;45.772;12.852;2022-08-20T13:16:08;3.63;;;1.40;;
8488;SDS011;4281;45.772;12.852;2022-08-20T13:18:37;2.70;;;1.43;;
8488;SDS011;4281;45.772;12.852;2022-08-20T13:21:06;1.40;;;1.30;;
8488;SDS011;4281;45.772;12.852;2022-08-20T13:23:35;1.03;;;0.80;;
8488;SDS011;4281;45.772;12.852;2022-08-20T13:26:05;0.87;;;0.70;;
8488;SDS011;4281;45.772;12.852;2022-08-20T13:28:34;0.67;;;0.67;;
8488;SDS011;4281;45.772;12.852;2022-08-20T13:31:02;1.83;;;1.20;;
8488;SDS011;4281;45.772;12.852;2022-08-20T13:33:31;1.83;;;0.90;;
8488;SDS011;4281;45.772;12.852;2022-08-20T13:36:02;0.70;;;0.70;;
8488;SDS011;4281;45.772;12.852;2022-08-20T13:38:31;0.73;;;0.73;;
8488;SDS011;4281;45.772;12.852;2022-08-20T13:40:59;0.80;;;0.80;;
8488;SDS011;4281;45.772;12.852;2022-08-20T13:43:29;0.70;;;0.70;;
8488;SDS011;4281;45.772;12.852;2022-08-20T13:45:58;1.13;;;0.63;;
8488;SDS011;4281;45.772;12.852;2022-08-20T13:48:26;1.07;;;0.70;;
8488;SDS011;4281;45.772;12.852;2022-08-20T13:50:55;2.53;;;0.70;;
8488;SDS011;4281;45.772;12.852;2022-08-20T13:53:23;1.13;;;0.80;;
8488;SDS011;4281;45.772;12.852;2022-08-20T13:55:52;0.70;;;0.70;;
8488;SDS011;4281;45.772;12.852;2022-08-20T14:47:30;0.70;;;0.70;;
8488;SDS011;4281;45.772;12.852;2022-08-20T14:50:20;1.30;;;1.20;;
8488;SDS011;4281;45.772;12.852;2022-08-20T14:52:50;2.20;;;0.90;;
8488;SDS011;4281;45.772;12.852;2022-08-20T14:55:21;1.00;;;1.00;;
8488;SDS011;4281;45.772;12.852;2022-08-20T14:57:52;0.80;;;0.80;;
8488;SDS011;4281;45.772;12.852;2022-08-20T15:00:23;1.50;;;1.40;;
8488;SDS011;4281;45.772;12.852;2022-08-20T15:02:55;1.63;;;1.10;;
8488;SDS011;4281;45.772;12.852;2022-08-20T15:05:25;1.47;;;0.90;;
8488;SDS011;4281;45.772;12.852;2022-08-20T15:07:55;2.40;;;0.87;;
8488;SDS011;4281;45.772;12.852;2022-08-20T15:10:26;1.27;;;0.60;;
8488;SDS011;4281;45.772;12.852;2022-08-20T15:12:56;1.70;;;1.60;;
8488;SDS011;4281;45.772;12.852;2022-08-20T15:15:25;1.23;;;1.00;;
8488;SDS011;4281;45.772;12.852;2022-08-20T15:17:57;1.43;;;1.03;;
8488;SDS011;4281;45.772;12.852;2022-08-20T15:20:28;0.83;;;0.83;;
8488;SDS011;4281;45.772;12.852;2022-08-20T15:22:59;2.40;;;0.80;;
8488;SDS011;4281;45.772;12.852;2022-08-20T15:25:30;0.97;;;0.80;;
8488;SDS011;4281;45.772;12.852;2022-08-20T15:28:03;1.40;;;0.77;;
8488;SDS011;4281;45.772;12.852;2022-08-20T15:30:34;1.53;;;0.80;;
8488;SDS011;4281;45.772;12.852;2022-08-20T15:33:07;2.37;;;1.10;;
8488;SDS011;4281;45.772;12.852;2022-08-20T15:35:37;0.80;;;0.80;;
8488;SDS011;4281;45.772;12.852;2022-08-20T15:38:06;0.70;;;0.70;;
8488;SDS011;4281;45.772;12.852;2022-08-20T15:40:35;0.70;;;0.70;;
8488;SDS011;4281;45.772;12.852;2022-08-20T15:43:06;0.70;;;0.70;;
8488;SDS011;4281;45.772;12.852;2022-08-20T15:45:35;0.60;;;0.60;;
8488;SDS011;4281;45.772;12.852;2022-08-20T15:48:10;1.43;;;0.77;;
8488;SDS011;4281;45.772;12.852;2022-08-20T15:53:30;1.10;;;0.70;;
8488;SDS011;4281;45.772;12.852;2022-08-20T15:56:07;1.30;;;1.20;;
8488;SDS011;4281;45.772;12.852;2022-08-20T15:58:43;1.20;;;0.80;;
8488;SDS011;4281;45.772;12.852;2022-08-20T16:01:22;0.93;;;0.80;;
8488;SDS011;4281;45.772;12.852;2022-08-20T16:06:53;2.00;;;0.70;;
8488;SDS011;4281;45.772;12.852;2022-08-20T16:09:31;1.10;;;1.00;;
8488;SDS011;4281;45.772;12.852;2022-08-20T16:12:07;1.47;;;0.70;;
8488;SDS011;4281;45.772;12.852;2022-08-20T16:14:38;2.77;;;1.83;;
8488;SDS011;4281;45.772;12.852;2022-08-20T16:17:10;0.70;;;0.70;;
8488;SDS011;4281;45.772;12.852;2022-08-20T16:19:47;0.87;;;0.87;;
8488;SDS011;4281;45.772;12.852;2022-08-20T16:22:23;1.90;;;0.90;;
8488;SDS011;4281;45.772;12.852;2022-08-20T16:24:56;0.87;;;0.70;;
8488;SDS011;4281;45.772;12.852;2022-08-20T16:27:26;1.27;;;0.87;;
8488;SDS011;4281;45.772;12.852;2022-08-20T16:30:03;1.73;;;0.70;;
8488;SDS011;4281;45.772;12.852;2022-08-20T16:32:36;1.10;;;1.00;;
8488;SDS011;4281;45.772;12.852;2022-08-20T16:35:13;1.17;;;1.07;;
8488;SDS011;4281;45.772;12.852;2022-08-20T16:37:57;2.30;;;0.90;;